createdAt,value
2023-05-10T00:00:23.525Z,41.05
2023-05-10T00:02:50.473Z,39.80
2023-05-10T00:05:17.376Z,41.25
2023-05-10T00:07:45.835Z,39.35
2023-05-10T00:10:13.310Z,39.22
2023-05-10T00:12:40.377Z,40.42
2023-05-10T00:15:07.954Z,40.75
2023-05-10T00:17:35.174Z,38.70
2023-05-10T00:20:01.980Z,41.78
2023-05-10T00:22:28.965Z,40.60
2023-05-10T00:24:55.835Z,38.85
2023-05-10T00:27:22.614Z,42.47
2023-05-10T00:29:49.415Z,45.20
2023-05-10T00:32:16.396Z,43.85
2023-05-10T00:34:43.275Z,40.60
2023-05-10T00:37:10.045Z,43.25
2023-05-10T00:39:36.718Z,42.60
2023-05-10T00:42:03.502Z,47.03
2023-05-10T00:44:30.336Z,46.35
2023-05-10T00:46:57.309Z,45.85
2023-05-10T00:49:24.170Z,43.20
2023-05-10T00:51:51.420Z,47.55
2023-05-10T00:54:18.913Z,50.28
2023-05-10T00:56:50.202Z,44.45
2023-05-10T00:59:18.122Z,48.38
2023-05-10T01:01:48.581Z,44.85
2023-05-10T01:04:16.234Z,39.95
2023-05-10T01:06:43.787Z,38.00
2023-05-10T01:09:12.603Z,41.20
2023-05-10T01:11:40.325Z,40.22
2023-05-10T01:14:07.752Z,45.22
2023-05-10T01:16:39.103Z,38.45
2023-05-10T01:19:17.641Z,43.58
2023-05-10T01:21:49.358Z,40.25
2023-05-10T01:27:04.040Z,40.47
2023-05-10T01:30:21.938Z,42.90
2023-05-10T01:33:17.232Z,41.75
2023-05-10T01:35:59.014Z,40.13
2023-05-10T01:41:07.915Z,40.28
2023-05-10T01:43:43.946Z,39.83
2023-05-10T01:46:17.516Z,41.70
2023-05-10T01:48:55.136Z,40.13
2023-05-10T01:51:26.128Z,41.00
2023-05-10T01:54:01.730Z,40.08
2023-05-10T01:56:31.733Z,40.85
2023-05-10T01:58:59.732Z,38.33
2023-05-10T02:01:27.878Z,40.88
2023-05-10T02:03:56.080Z,38.88
2023-05-10T02:06:24.722Z,40.47
2023-05-10T02:08:52.512Z,39.80
2023-05-10T02:11:22.433Z,41.78
2023-05-10T02:13:51.467Z,40.00
2023-05-10T02:16:19.513Z,41.28
2023-05-10T02:18:48.278Z,42.15
2023-05-10T02:21:17.288Z,40.20
2023-05-10T02:23:46.048Z,43.45
2023-05-10T02:26:14.696Z,41.75
2023-05-10T02:28:43.218Z,43.10
2023-05-10T02:31:11.517Z,44.22
2023-05-10T02:33:41.363Z,45.05
2023-05-10T02:36:09.856Z,43.63
2023-05-10T02:38:37.958Z,42.85
2023-05-10T02:41:07.010Z,37.22
2023-05-10T02:43:34.910Z,36.95
2023-05-10T02:46:01.924Z,38.70
2023-05-10T02:48:29.495Z,37.10
2023-05-10T02:51:00.800Z,40.85
2023-05-10T02:53:39.481Z,37.28
2023-05-10T02:56:15.150Z,40.63
2023-05-10T02:58:41.945Z,38.08
2023-05-10T03:01:08.970Z,32.85
2023-05-10T03:03:35.897Z,39.63
2023-05-10T03:06:02.628Z,36.40
2023-05-10T03:08:32.485Z,41.33
2023-05-10T03:11:30.361Z,41.05
2023-05-10T03:14:23.393Z,37.75
2023-05-10T03:17:09.163Z,36.28
2023-05-10T03:19:49.004Z,36.05
2023-05-10T03:22:22.344Z,43.03
2023-05-10T03:24:50.615Z,36.13
2023-05-10T03:27:18.132Z,39.63
2023-05-10T03:29:47.486Z,37.00
2023-05-10T03:32:14.298Z,37.88
2023-05-10T03:34:44.489Z,37.83
2023-05-10T03:37:11.438Z,35.70
2023-05-10T03:39:38.202Z,35.30
2023-05-10T03:42:05.135Z,35.13
2023-05-10T03:44:34.107Z,38.67
2023-05-10T03:47:01.051Z,40.97
2023-05-10T03:49:27.769Z,40.53
2023-05-10T03:51:54.505Z,38.80
2023-05-10T03:54:21.406Z,36.90
2023-05-10T03:56:49.036Z,39.97
2023-05-10T03:59:16.105Z,37.70
2023-05-10T04:01:42.932Z,30.17
2023-05-10T04:04:09.728Z,30.98
2023-05-10T04:06:36.511Z,33.28
2023-05-10T04:09:05.391Z,35.60
2023-05-10T04:11:32.249Z,36.13
2023-05-10T04:13:58.984Z,35.42
2023-05-10T04:16:25.810Z,37.08
2023-05-10T04:18:52.595Z,40.00
2023-05-10T04:21:19.462Z,26.02
2023-05-10T04:23:46.506Z,26.65
2023-05-10T04:26:14.068Z,30.05
2023-05-10T04:28:41.041Z,26.08
2023-05-10T04:31:09.741Z,26.25
2023-05-10T04:33:37.503Z,22.30
2023-05-10T04:36:05.005Z,22.10
2023-05-10T04:38:31.750Z,20.83
2023-05-10T04:41:09.745Z,21.58
2023-05-10T04:43:37.416Z,15.25
2023-05-10T04:46:05.093Z,14.13
2023-05-10T04:48:32.213Z,12.30
2023-05-10T04:50:59.005Z,10.57
2023-05-10T04:53:25.767Z,10.02
2023-05-10T04:55:52.525Z,9.38
2023-05-10T04:58:19.271Z,8.98
2023-05-10T05:00:46.004Z,7.88
2023-05-10T05:03:12.790Z,7.00
2023-05-10T05:05:39.668Z,7.28
2023-05-10T05:08:06.426Z,7.40
2023-05-10T05:10:33.165Z,6.60
2023-05-10T05:12:59.984Z,7.00
2023-05-10T05:15:26.907Z,7.38
2023-05-10T05:17:53.798Z,8.80
2023-05-10T05:20:20.663Z,9.07
2023-05-10T05:22:47.390Z,9.52
2023-05-10T05:25:14.172Z,9.27
2023-05-10T05:27:40.887Z,10.55
2023-05-10T05:30:08.302Z,11.10
2023-05-10T05:32:35.177Z,10.88
2023-05-10T05:35:01.903Z,11.77
2023-05-10T05:37:28.637Z,12.35
2023-05-10T05:39:56.023Z,12.52
2023-05-10T05:42:22.857Z,12.55
2023-05-10T05:44:49.550Z,14.18
2023-05-10T05:47:16.362Z,13.13
2023-05-10T05:49:43.192Z,12.52
2023-05-10T05:52:09.911Z,13.75
2023-05-10T05:54:36.684Z,12.82
2023-05-10T05:57:03.712Z,12.65
2023-05-10T05:59:30.484Z,12.50
2023-05-10T06:01:57.237Z,11.85
2023-05-10T06:04:24.129Z,12.15
2023-05-10T06:06:50.821Z,13.93
2023-05-10T06:09:17.620Z,12.82
2023-05-10T06:11:44.423Z,12.88
2023-05-10T06:14:11.317Z,12.82
2023-05-10T06:16:38.096Z,11.95
2023-05-10T06:19:04.875Z,12.50
2023-05-10T06:21:31.716Z,11.63
2023-05-10T06:23:58.440Z,11.38
2023-05-10T06:26:25.879Z,10.45
2023-05-10T06:28:52.662Z,11.38
2023-05-10T06:31:19.755Z,11.93
2023-05-10T06:33:46.754Z,14.25
2023-05-10T06:36:14.324Z,13.30
2023-05-10T06:38:41.115Z,11.48
2023-05-10T06:41:07.884Z,10.63
2023-05-10T06:43:34.637Z,11.43
2023-05-10T06:46:01.562Z,10.35
2023-05-10T06:48:46.623Z,9.68
2023-05-10T06:51:15.419Z,12.27
2023-05-10T06:53:42.150Z,10.30
2023-05-10T06:56:09.040Z,11.32
2023-05-10T06:58:35.825Z,10.73
2023-05-10T07:01:06.412Z,9.95
2023-05-10T07:03:33.420Z,8.93
2023-05-10T07:06:13.338Z,10.70
2023-05-10T07:08:45.526Z,11.55
2023-05-10T07:11:12.461Z,12.43
2023-05-10T07:13:42.210Z,10.70
2023-05-10T07:16:09.063Z,11.35
2023-05-10T07:18:35.818Z,10.65
2023-05-10T07:21:02.743Z,9.00
2023-05-10T07:23:29.686Z,10.13
2023-05-10T07:25:58.256Z,9.93
2023-05-10T07:28:27.727Z,9.52
2023-05-10T07:30:54.490Z,9.88
2023-05-10T07:33:21.591Z,7.63
2023-05-10T07:35:48.345Z,8.13
2023-05-10T07:38:15.278Z,9.38
2023-05-10T07:40:41.991Z,9.10
2023-05-10T07:43:08.722Z,10.35
2023-05-10T07:45:35.575Z,10.15
2023-05-10T07:48:02.488Z,9.95
2023-05-10T07:50:29.492Z,10.35
2023-05-10T07:52:56.362Z,9.60
2023-05-10T07:55:23.161Z,8.77
2023-05-10T07:57:49.975Z,9.32
2023-05-10T08:00:21.497Z,9.40
2023-05-10T08:02:48.949Z,8.57
2023-05-10T08:05:16.327Z,8.85
2023-05-10T08:07:43.473Z,7.68
2023-05-10T08:10:12.036Z,8.00
2023-05-10T08:12:39.764Z,8.73
2023-05-10T08:15:07.671Z,7.70
2023-05-10T08:17:34.532Z,7.45
2023-05-10T08:20:01.265Z,7.45
2023-05-10T08:22:28.466Z,7.25
2023-05-10T08:24:55.401Z,6.82
2023-05-10T08:27:22.206Z,7.18
2023-05-10T08:29:50.397Z,7.00
2023-05-10T08:32:17.868Z,7.05
2023-05-10T08:34:45.055Z,6.15
2023-05-10T08:37:14.358Z,6.00
2023-05-10T08:39:41.651Z,5.45
2023-05-10T08:42:10.182Z,6.53
2023-05-10T08:44:38.002Z,5.40
2023-05-10T08:47:10.018Z,6.35
2023-05-10T08:49:38.563Z,6.97
2023-05-10T08:52:06.951Z,6.80
2023-05-10T08:54:34.579Z,6.63
2023-05-10T08:57:01.829Z,6.22
2023-05-10T08:59:28.811Z,6.22
2023-05-10T09:01:58.786Z,7.47
2023-05-10T09:04:26.270Z,8.40
2023-05-10T09:06:53.154Z,7.97
2023-05-10T09:09:21.278Z,9.00
2023-05-10T09:11:48.509Z,9.35
2023-05-10T09:14:16.519Z,8.52
2023-05-10T09:16:43.634Z,8.02
2023-05-10T09:19:10.677Z,8.23
2023-05-10T09:21:40.719Z,9.05
2023-05-10T09:24:08.760Z,9.95
2023-05-10T09:26:36.958Z,9.05
2023-05-10T09:29:04.474Z,8.93
2023-05-10T09:31:57.540Z,10.07
2023-05-10T09:34:32.070Z,8.57
2023-05-10T09:37:07.770Z,9.95
2023-05-10T09:39:35.966Z,8.13
2023-05-10T09:42:08.185Z,9.07
2023-05-10T09:44:35.717Z,9.13
2023-05-10T09:47:03.292Z,8.50
2023-05-10T09:49:30.271Z,8.20
2023-05-10T09:52:08.347Z,8.35
2023-05-10T09:54:35.846Z,7.95
2023-05-10T09:57:02.790Z,8.73
2023-05-10T09:59:30.487Z,8.82
2023-05-10T10:01:59.135Z,9.93
2023-05-10T10:04:27.754Z,9.63
2023-05-10T10:07:05.884Z,8.63
2023-05-10T10:09:33.837Z,9.70
2023-05-10T10:12:04.784Z,9.20
2023-05-10T10:14:31.735Z,9.93
2023-05-10T10:17:08.366Z,9.90
2023-05-10T10:19:37.228Z,9.45
2023-05-10T10:22:04.332Z,9.30
2023-05-10T10:24:31.178Z,9.77
2023-05-10T10:27:08.801Z,10.60
2023-05-10T10:30:14.434Z,8.43
2023-05-10T10:32:46.912Z,8.65
2023-05-10T10:35:14.008Z,7.95
2023-05-10T10:37:48.363Z,8.15
2023-05-10T10:40:35.146Z,9.02
2023-05-10T10:43:25.037Z,8.45
2023-05-10T10:46:17.999Z,8.43
2023-05-10T10:49:09.692Z,8.88
2023-05-10T10:51:40.134Z,9.77
2023-05-10T10:54:11.313Z,8.85
2023-05-10T10:56:38.366Z,8.23
2023-05-10T10:59:05.294Z,7.68
2023-05-10T11:01:36.372Z,8.30
2023-05-10T11:04:06.300Z,8.63
2023-05-10T11:06:35.065Z,7.15
2023-05-10T11:09:09.837Z,7.85
2023-05-10T11:11:37.674Z,7.22
2023-05-10T11:14:06.893Z,7.60
2023-05-10T11:16:45.572Z,7.20
2023-05-10T11:19:14.293Z,6.88
2023-05-10T11:21:49.682Z,7.10
2023-05-10T11:24:27.889Z,7.45
2023-05-10T11:26:54.735Z,6.82
2023-05-10T11:29:21.554Z,7.15
2023-05-10T11:31:50.121Z,7.88
2023-05-10T11:34:31.808Z,7.63
2023-05-10T11:39:30.661Z,8.07
2023-05-10T11:41:58.561Z,8.43
2023-05-10T11:44:31.326Z,7.65
2023-05-10T11:47:03.313Z,8.55
2023-05-10T11:49:30.200Z,8.23
2023-05-10T11:52:08.172Z,7.78
2023-05-10T11:54:38.016Z,8.05
2023-05-10T11:57:04.993Z,6.72
2023-05-10T11:59:31.744Z,7.18
2023-05-10T12:01:58.892Z,7.72
2023-05-10T12:04:26.560Z,7.85
2023-05-10T12:06:53.400Z,7.50
2023-05-10T12:09:31.516Z,8.45
2023-05-10T12:12:06.821Z,8.98
2023-05-10T12:14:36.156Z,8.27
2023-05-10T12:17:02.985Z,7.65
2023-05-10T12:19:37.481Z,7.72
2023-05-10T12:22:06.693Z,7.30
2023-05-10T12:24:36.590Z,7.15
2023-05-10T12:27:09.066Z,6.75
2023-05-10T12:29:36.169Z,7.47
2023-05-10T12:32:03.492Z,8.02
2023-05-10T12:34:37.022Z,7.47
2023-05-10T12:37:04.701Z,6.63
2023-05-10T12:39:45.740Z,7.05
2023-05-10T12:42:12.807Z,6.53
2023-05-10T12:44:40.841Z,6.80
2023-05-10T12:47:07.766Z,6.68
2023-05-10T12:49:34.925Z,6.85
2023-05-10T12:52:01.785Z,5.90
2023-05-10T12:54:28.903Z,5.85
2023-05-10T12:56:55.993Z,6.07
2023-05-10T12:59:23.811Z,5.90
2023-05-10T13:01:50.748Z,5.65
2023-05-10T13:04:17.563Z,7.18
2023-05-10T13:06:44.349Z,8.02
2023-05-10T13:09:11.037Z,8.25
2023-05-10T13:11:37.999Z,7.55
2023-05-10T13:14:04.700Z,5.82
2023-05-10T13:16:31.900Z,6.15
2023-05-10T13:18:59.450Z,6.78
2023-05-10T13:21:26.319Z,7.00
2023-05-10T13:23:53.530Z,6.57
2023-05-10T13:26:21.019Z,6.45
2023-05-10T13:28:47.729Z,6.75
2023-05-10T13:31:14.551Z,6.03
2023-05-10T13:33:41.252Z,5.80
2023-05-10T13:36:08.241Z,5.05
2023-05-10T13:38:34.993Z,6.07
2023-05-10T13:41:01.820Z,5.07
2023-05-10T13:43:29.827Z,5.88
2023-05-10T13:45:56.680Z,6.00
2023-05-10T13:48:23.571Z,6.03
2023-05-10T13:50:50.677Z,6.25
2023-05-10T13:53:17.424Z,6.03
2023-05-10T13:55:44.096Z,5.80
2023-05-10T13:58:11.638Z,6.40
2023-05-10T14:00:38.424Z,6.45
2023-05-10T14:03:06.316Z,6.53
2023-05-10T14:05:33.615Z,7.85
2023-05-10T14:08:00.292Z,7.78
2023-05-10T14:10:27.124Z,7.25
2023-05-10T14:12:53.888Z,7.28
2023-05-10T14:15:20.663Z,7.65
2023-05-10T14:17:47.396Z,7.30
2023-05-10T14:20:14.167Z,6.70
2023-05-10T14:22:41.457Z,6.65
2023-05-10T14:25:08.808Z,6.55
2023-05-10T14:27:35.629Z,6.55
2023-05-10T14:30:02.420Z,6.35
2023-05-10T14:32:29.381Z,6.28
2023-05-10T14:34:56.651Z,6.47
2023-05-10T14:37:23.481Z,6.38
2023-05-10T14:39:50.222Z,5.85
2023-05-10T14:42:17.189Z,6.13
2023-05-10T14:44:43.995Z,6.00
2023-05-10T14:47:12.120Z,4.68
2023-05-10T14:49:39.196Z,4.20
2023-05-10T14:52:05.893Z,4.70
2023-05-10T14:54:34.443Z,4.55
2023-05-10T14:57:01.606Z,4.07
2023-05-10T14:59:28.334Z,4.30
2023-05-10T15:01:55.662Z,3.72
2023-05-10T15:04:23.685Z,4.28
2023-05-10T15:06:51.508Z,4.53
2023-05-10T15:09:18.228Z,4.20
2023-05-10T15:11:45.446Z,3.47
2023-05-10T15:14:12.128Z,3.40
2023-05-10T15:16:39.049Z,3.67
2023-05-10T15:19:05.884Z,3.78
2023-05-10T15:21:38.555Z,4.10
2023-05-10T15:24:06.678Z,4.28
2023-05-10T15:26:33.628Z,3.63
2023-05-10T15:29:00.592Z,3.45
2023-05-10T15:31:28.182Z,3.38
2023-05-10T15:34:00.054Z,3.50
2023-05-10T15:36:26.837Z,4.43
2023-05-10T15:38:55.626Z,3.35
2023-05-10T15:41:22.431Z,4.15
2023-05-10T15:43:49.225Z,4.45
2023-05-10T15:46:15.978Z,3.83
2023-05-10T15:48:42.871Z,4.82
2023-05-10T15:51:09.559Z,4.75
2023-05-10T15:53:36.297Z,3.95
2023-05-10T15:56:03.047Z,4.25
2023-05-10T15:58:29.841Z,3.53
2023-05-10T16:00:57.696Z,3.20
2023-05-10T16:03:24.868Z,2.63
2023-05-10T16:05:51.974Z,3.33
2023-05-10T16:08:18.662Z,2.70
2023-05-10T16:10:45.741Z,3.45
2023-05-10T16:13:14.123Z,3.58
2023-05-10T16:15:41.832Z,4.57
2023-05-10T16:18:08.846Z,4.43
2023-05-10T16:20:35.780Z,4.85
2023-05-10T16:23:05.425Z,4.82
2023-05-10T16:25:32.815Z,5.53
2023-05-10T16:28:00.069Z,6.95
2023-05-10T16:30:29.414Z,6.65
2023-05-10T16:32:57.471Z,7.70
2023-05-10T16:35:24.291Z,7.78
2023-05-10T16:37:51.355Z,7.00
2023-05-10T16:40:18.552Z,7.25
2023-05-10T16:42:45.400Z,7.95
2023-05-10T16:45:12.499Z,8.50
2023-05-10T16:47:40.369Z,8.30
2023-05-10T16:50:08.131Z,9.07
2023-05-10T16:52:36.053Z,8.77
2023-05-10T16:55:04.453Z,8.57
2023-05-10T16:57:32.913Z,9.13
2023-05-10T16:59:59.715Z,8.43
2023-05-10T17:02:26.586Z,8.60
2023-05-10T17:04:54.916Z,8.10
2023-05-10T17:07:22.639Z,8.70
2023-05-10T17:09:50.923Z,8.88
2023-05-10T17:12:17.952Z,9.95
2023-05-10T17:14:44.752Z,9.05
2023-05-10T17:17:11.678Z,9.48
2023-05-10T17:19:38.492Z,9.13
2023-05-10T17:22:05.407Z,9.00
2023-05-10T17:24:33.031Z,8.80
2023-05-10T17:27:00.629Z,9.05
2023-05-10T17:29:28.545Z,10.27
2023-05-10T17:31:55.598Z,9.35
2023-05-10T17:34:22.498Z,9.38
2023-05-10T17:36:49.433Z,8.02
2023-05-10T17:39:16.254Z,9.07
2023-05-10T17:41:43.052Z,7.03
2023-05-10T17:44:09.826Z,7.47
2023-05-10T17:46:36.924Z,7.60
2023-05-10T17:49:03.903Z,7.90
2023-05-10T17:51:30.630Z,7.30
2023-05-10T17:53:57.315Z,7.82
2023-05-10T17:56:24.492Z,8.05
2023-05-10T17:58:51.230Z,7.57
2023-05-10T18:01:18.129Z,7.65
2023-05-10T18:03:44.830Z,8.10
2023-05-10T18:06:11.825Z,8.95
2023-05-10T18:08:38.609Z,6.60
2023-05-10T18:11:05.397Z,6.40
2023-05-10T18:13:32.157Z,7.60
2023-05-10T18:15:59.338Z,7.35
2023-05-10T18:18:26.173Z,7.00
2023-05-10T18:20:57.810Z,6.63
2023-05-10T18:25:51.883Z,5.53
2023-05-10T18:28:19.147Z,4.85
2023-05-10T18:30:46.003Z,5.30
2023-05-10T18:33:13.244Z,5.75
2023-05-10T18:35:40.352Z,4.45
2023-05-10T18:38:09.721Z,5.03
2023-05-10T18:40:36.938Z,5.03
2023-05-10T18:43:04.179Z,5.03
2023-05-10T18:45:31.072Z,5.07
2023-05-10T18:47:57.912Z,4.72
2023-05-10T18:50:24.765Z,3.70
2023-05-10T18:52:51.540Z,3.90
2023-05-10T18:55:18.596Z,4.15
2023-05-10T18:57:45.850Z,4.15
2023-05-10T19:00:13.125Z,4.10
2023-05-10T19:02:40.942Z,5.90
2023-05-10T19:05:08.658Z,4.82
2023-05-10T19:07:35.525Z,3.35
2023-05-10T19:10:02.627Z,4.00
2023-05-10T19:12:29.404Z,3.60
2023-05-10T19:14:56.181Z,4.00
2023-05-10T19:17:24.978Z,3.85
2023-05-10T19:19:51.786Z,4.28
2023-05-10T19:22:23.352Z,4.60
2023-05-10T19:24:55.404Z,4.35
2023-05-10T19:27:22.319Z,4.55
2023-05-10T19:29:49.121Z,4.20
2023-05-10T19:32:15.865Z,4.03
2023-05-10T19:34:42.552Z,4.57
2023-05-10T19:37:09.370Z,5.07
2023-05-10T19:39:36.065Z,5.53
2023-05-10T19:42:02.830Z,5.28
2023-05-10T19:44:29.696Z,4.10
2023-05-10T19:46:57.126Z,4.18
2023-05-10T19:49:24.247Z,4.53
2023-05-10T19:51:51.326Z,4.90
2023-05-10T19:54:18.084Z,4.68
2023-05-10T19:56:44.797Z,4.78
2023-05-10T19:59:11.662Z,6.05
2023-05-10T20:01:38.486Z,5.53
2023-05-10T20:04:05.891Z,4.65
2023-05-10T20:06:33.035Z,4.03
2023-05-10T20:08:59.767Z,2.28
2023-05-10T20:11:26.498Z,2.60
2023-05-10T20:13:53.471Z,2.90
2023-05-10T20:16:20.266Z,2.75
2023-05-10T20:18:47.171Z,3.70
2023-05-10T20:21:14.145Z,4.40
2023-05-10T20:23:40.915Z,4.90
2023-05-10T20:26:07.693Z,5.20
2023-05-10T20:28:34.625Z,5.68
2023-05-10T20:31:02.097Z,4.70
2023-05-10T20:33:29.054Z,4.93
2023-05-10T20:35:55.975Z,3.70
2023-05-10T20:38:22.762Z,4.40
2023-05-10T20:40:49.561Z,4.57
2023-05-10T20:43:16.373Z,4.32
2023-05-10T20:45:43.185Z,4.93
2023-05-10T20:48:10.004Z,5.00
2023-05-10T20:50:36.894Z,5.07
2023-05-10T20:53:03.725Z,5.88
2023-05-10T20:55:30.565Z,4.43
2023-05-10T20:57:57.332Z,4.30
2023-05-10T21:00:24.141Z,4.70
2023-05-10T21:02:50.868Z,4.88
2023-05-10T21:05:18.678Z,4.60
2023-05-10T21:07:45.505Z,4.90
2023-05-10T21:10:12.661Z,4.65
2023-05-10T21:12:39.531Z,5.07
2023-05-10T21:15:08.130Z,5.03
2023-05-10T21:17:34.875Z,5.82
2023-05-10T21:20:01.651Z,4.95
2023-05-10T21:22:28.493Z,5.50
2023-05-10T21:24:55.201Z,5.93
2023-05-10T21:27:21.984Z,5.78
2023-05-10T21:29:48.752Z,6.15
2023-05-10T21:32:15.641Z,5.90
2023-05-10T21:34:42.609Z,6.20
2023-05-10T21:37:09.342Z,6.90
2023-05-10T21:39:36.310Z,6.40
2023-05-10T21:42:03.725Z,7.00
2023-05-10T21:44:31.647Z,6.65
2023-05-10T21:46:58.336Z,6.90
2023-05-10T21:49:25.140Z,6.43
2023-05-10T21:51:52.308Z,6.63
2023-05-10T21:54:19.015Z,7.68
2023-05-10T21:56:45.855Z,7.25
2023-05-10T21:59:12.639Z,7.80
2023-05-10T22:01:39.390Z,8.18
2023-05-10T22:04:06.172Z,7.43
2023-05-10T22:06:32.934Z,7.95
2023-05-10T22:08:59.667Z,8.13
2023-05-10T22:11:27.433Z,7.57
2023-05-10T22:13:54.161Z,8.20
2023-05-10T22:16:21.018Z,8.57
2023-05-10T22:18:47.807Z,8.75
2023-05-10T22:21:14.598Z,9.32
2023-05-10T22:23:41.283Z,9.00
2023-05-10T22:26:08.195Z,9.68
2023-05-10T22:28:35.035Z,10.32
2023-05-10T22:31:01.859Z,9.77
2023-05-10T22:33:28.702Z,10.23
2023-05-10T22:35:55.816Z,9.95
2023-05-10T22:38:22.671Z,9.55
2023-05-10T22:40:49.472Z,10.05
2023-05-10T22:43:17.250Z,10.48
2023-05-10T22:45:44.109Z,9.98
2023-05-10T22:48:10.826Z,10.73
2023-05-10T22:50:37.656Z,10.90
2023-05-10T22:53:04.632Z,10.77
2023-05-10T22:55:31.457Z,11.35
2023-05-10T22:57:58.314Z,11.60
2023-05-10T23:00:25.236Z,11.05
2023-05-10T23:02:52.042Z,11.77
2023-05-10T23:05:19.230Z,13.48
2023-05-10T23:07:48.443Z,12.95
2023-05-10T23:10:15.333Z,12.43
2023-05-10T23:12:42.225Z,13.27
2023-05-10T23:15:09.562Z,12.88
2023-05-10T23:17:36.463Z,13.55
2023-05-10T23:20:03.910Z,13.52
2023-05-10T23:22:30.594Z,13.40
2023-05-10T23:24:57.377Z,13.13
2023-05-10T23:27:24.189Z,13.50
2023-05-10T23:29:55.388Z,14.43
2023-05-10T23:32:25.323Z,15.05
2023-05-10T23:34:52.217Z,15.35
2023-05-10T23:37:18.990Z,15.32
2023-05-10T23:39:45.750Z,14.73
2023-05-10T23:42:12.597Z,14.23
2023-05-10T23:44:39.346Z,14.95
2023-05-10T23:47:06.226Z,15.75
2023-05-10T23:49:33.089Z,16.70
2023-05-10T23:51:59.901Z,16.85
2023-05-10T23:54:26.776Z,16.67
2023-05-10T23:56:53.525Z,16.42
2023-05-10T23:59:20.301Z,18.77
